createdAt,value
2023-02-24T00:01:59.990Z,8.30
2023-02-24T00:04:32.973Z,7.80
2023-02-24T00:07:00.175Z,8.50
2023-02-24T00:09:28.221Z,7.82
2023-02-24T00:12:01.199Z,8.52
2023-02-24T00:14:33.850Z,8.05
2023-02-24T00:17:01.132Z,9.40
2023-02-24T00:19:32.744Z,9.07
2023-02-24T00:22:00.748Z,7.55
2023-02-24T00:24:27.892Z,8.32
2023-02-24T00:26:57.090Z,8.85
2023-02-24T00:29:24.246Z,9.27
2023-02-24T00:31:59.201Z,8.30
2023-02-24T00:34:27.353Z,9.75
2023-02-24T00:36:54.148Z,8.75
2023-02-24T00:39:30.811Z,9.25
2023-02-24T00:42:06.889Z,8.43
2023-02-24T00:44:41.677Z,8.25
2023-02-24T00:47:10.497Z,8.30
2023-02-24T00:49:42.762Z,9.60
2023-02-24T00:52:13.724Z,10.93
2023-02-24T00:54:44.342Z,11.52
2023-02-24T00:57:11.832Z,10.73
2023-02-24T00:59:39.040Z,9.27
2023-02-24T01:02:07.256Z,10.07
2023-02-24T01:04:34.926Z,10.98
2023-02-24T01:07:01.859Z,10.48
2023-02-24T01:09:30.881Z,9.95
2023-02-24T01:12:16.572Z,8.95
2023-02-24T01:14:47.008Z,9.10
2023-02-24T01:17:14.498Z,10.02
2023-02-24T01:19:41.021Z,8.73
2023-02-24T01:22:10.077Z,9.57
2023-02-24T01:24:41.267Z,10.20
2023-02-24T01:27:08.410Z,9.52
2023-02-24T01:29:39.414Z,8.57
2023-02-24T01:32:07.676Z,9.48
2023-02-24T01:34:35.096Z,8.95
2023-02-24T01:37:01.945Z,9.15
2023-02-24T01:39:28.458Z,9.13
2023-02-24T01:41:54.921Z,8.82
2023-02-24T01:44:25.219Z,8.30
2023-02-24T01:46:53.621Z,8.43
2023-02-24T01:49:36.978Z,9.40
2023-02-24T01:52:18.086Z,8.57
2023-02-24T01:54:50.282Z,10.02
2023-02-24T01:57:19.914Z,8.15
2023-02-24T01:59:50.043Z,8.82
2023-02-24T02:02:18.357Z,8.23
2023-02-24T02:04:58.526Z,7.95
2023-02-24T02:07:27.638Z,8.07
2023-02-24T02:09:55.104Z,7.32
2023-02-24T02:12:22.680Z,8.02
2023-02-24T02:14:53.716Z,7.93
2023-02-24T02:17:43.244Z,8.23
2023-02-24T02:20:15.800Z,8.18
2023-02-24T02:23:04.359Z,8.03
2023-02-24T02:25:36.538Z,7.82
2023-02-24T02:29:01.670Z,8.00
2023-02-24T02:31:29.298Z,7.10
2023-02-24T02:34:31.809Z,7.13
2023-02-24T02:37:27.024Z,7.10
2023-02-24T02:40:16.181Z,7.38
2023-02-24T02:43:18.789Z,6.93
2023-02-24T02:45:52.323Z,8.00
2023-02-24T02:48:22.648Z,7.15
2023-02-24T02:50:55.613Z,8.02
2023-02-24T02:53:31.572Z,7.20
2023-02-24T02:56:22.089Z,7.43
2023-02-24T02:58:53.957Z,7.07
2023-02-24T03:01:25.310Z,7.03
2023-02-24T03:03:56.014Z,7.95
2023-02-24T03:06:30.235Z,7.53
2023-02-24T03:09:18.010Z,8.88
2023-02-24T03:11:49.292Z,7.65
2023-02-24T03:14:20.351Z,8.10
2023-02-24T03:16:49.306Z,7.43
2023-02-24T03:19:21.021Z,7.47
2023-02-24T03:21:58.194Z,7.00
2023-02-24T03:24:24.658Z,9.80
2023-02-24T03:26:58.495Z,7.10
2023-02-24T03:29:38.883Z,7.43
2023-02-24T03:32:12.743Z,8.18
2023-02-24T03:34:51.124Z,9.35
2023-02-24T03:37:25.609Z,8.38
2023-02-24T03:39:57.732Z,8.63
2023-02-24T03:42:28.662Z,8.93
2023-02-24T03:44:58.249Z,8.93
2023-02-24T03:47:25.975Z,8.27
2023-02-24T03:49:53.155Z,8.27
2023-02-24T03:52:34.884Z,8.10
2023-02-24T03:55:16.815Z,7.97
2023-02-24T03:58:12.782Z,7.82
2023-02-24T04:00:48.499Z,8.60
2023-02-24T04:03:39.487Z,8.20
2023-02-24T04:06:38.332Z,8.15
2023-02-24T04:09:36.818Z,9.18
2023-02-24T04:12:27.070Z,7.97
2023-02-24T04:14:57.285Z,9.43
2023-02-24T04:17:32.147Z,9.73
2023-02-24T04:20:01.414Z,9.25
2023-02-24T04:22:29.413Z,9.02
2023-02-24T04:24:59.799Z,10.38
2023-02-24T04:27:28.252Z,10.73
2023-02-24T04:30:00.074Z,9.95
2023-02-24T04:32:29.478Z,10.13
2023-02-24T04:35:06.941Z,9.13
2023-02-24T04:37:37.329Z,10.85
2023-02-24T04:40:13.424Z,11.07
2023-02-24T04:42:49.350Z,9.82
2023-02-24T04:45:28.163Z,10.43
2023-02-24T04:47:58.016Z,10.65
2023-02-24T04:50:26.012Z,10.52
2023-02-24T04:53:01.336Z,11.98
2023-02-24T04:55:32.976Z,11.18
2023-02-24T04:58:01.035Z,11.50
2023-02-24T05:00:33.456Z,12.75
2023-02-24T05:03:01.844Z,12.30
2023-02-24T05:05:28.787Z,14.38
2023-02-24T05:07:57.585Z,13.55
2023-02-24T05:10:28.140Z,13.73
2023-02-24T05:12:58.265Z,14.18
2023-02-24T05:15:31.249Z,15.50
2023-02-24T05:18:07.819Z,14.73
2023-02-24T05:21:00.358Z,14.02
2023-02-24T05:23:39.370Z,14.65
2023-02-24T05:26:08.579Z,16.13
2023-02-24T05:28:40.546Z,16.33
2023-02-24T05:31:15.042Z,15.43
2023-02-24T05:33:43.848Z,14.75
2023-02-24T05:36:15.196Z,16.23
2023-02-24T05:38:41.893Z,16.92
2023-02-24T05:41:17.011Z,17.25
2023-02-24T05:43:53.298Z,18.13
2023-02-24T05:46:20.437Z,21.67
2023-02-24T05:48:51.203Z,19.25
2023-02-24T05:51:17.725Z,19.98
2023-02-24T05:53:44.241Z,19.35
2023-02-24T05:56:11.114Z,17.98
2023-02-24T05:58:39.301Z,20.20
2023-02-24T06:01:16.166Z,19.25
2023-02-24T06:03:47.895Z,20.15
2023-02-24T06:06:17.745Z,21.45
2023-02-24T06:08:50.916Z,18.50
2023-02-24T06:11:20.672Z,17.55
2023-02-24T06:13:48.059Z,17.45
2023-02-24T06:16:17.150Z,18.48
2023-02-24T06:18:47.893Z,17.63
2023-02-24T06:21:15.238Z,18.63
2023-02-24T06:23:41.747Z,18.63
2023-02-24T06:26:19.205Z,17.67
2023-02-24T06:28:47.998Z,19.15
2023-02-24T06:31:15.171Z,19.80
2023-02-24T06:33:42.098Z,20.50
2023-02-24T06:36:09.085Z,19.25
2023-02-24T06:38:36.967Z,23.42
2023-02-24T06:41:10.721Z,21.73
2023-02-24T06:43:43.223Z,20.70
2023-02-24T06:46:11.979Z,20.42
2023-02-24T06:48:38.805Z,19.15
2023-02-24T06:51:06.662Z,19.45
2023-02-24T06:53:35.895Z,20.30
2023-02-24T06:56:07.277Z,21.42
2023-02-24T06:58:33.923Z,19.40
2023-02-24T07:01:02.644Z,21.55
2023-02-24T07:03:47.202Z,20.42
2023-02-24T07:06:28.582Z,21.38
2023-02-24T07:08:58.337Z,21.85
2023-02-24T07:11:25.932Z,19.25
2023-02-24T07:13:54.593Z,20.05
2023-02-24T07:16:25.686Z,18.73
2023-02-24T07:18:56.966Z,20.25
2023-02-24T07:21:25.533Z,19.52
2023-02-24T07:23:58.912Z,19.52
2023-02-24T07:26:27.873Z,18.27
2023-02-24T07:28:55.211Z,20.48
2023-02-24T07:31:24.458Z,18.60
2023-02-24T07:33:57.281Z,19.67
2023-02-24T07:36:24.824Z,17.30
2023-02-24T07:38:53.946Z,18.35
2023-02-24T07:41:23.179Z,17.70
2023-02-24T07:43:51.848Z,19.85
2023-02-24T07:46:24.633Z,20.60
2023-02-24T07:48:56.141Z,21.27
2023-02-24T07:51:25.908Z,22.02
2023-02-24T07:53:58.926Z,22.95
2023-02-24T07:56:27.424Z,21.90
2023-02-24T07:58:59.302Z,22.80
2023-02-24T08:01:38.761Z,21.67
2023-02-24T08:04:08.174Z,18.88
2023-02-24T08:06:46.203Z,19.88
2023-02-24T08:09:42.860Z,20.73
2023-02-24T08:12:09.505Z,22.70
2023-02-24T08:14:44.484Z,21.25
2023-02-24T08:17:12.175Z,22.70
2023-02-24T08:19:41.680Z,20.10
2023-02-24T08:22:20.933Z,19.52
2023-02-24T08:24:51.041Z,20.15
2023-02-24T08:27:20.258Z,19.88
2023-02-24T08:30:18.043Z,19.27
2023-02-24T08:32:45.015Z,20.20
2023-02-24T08:35:17.133Z,20.30
2023-02-24T08:37:49.116Z,19.52
2023-02-24T08:40:34.300Z,19.25
2023-02-24T08:43:16.419Z,19.33
2023-02-24T08:45:51.895Z,19.77
2023-02-24T08:48:32.293Z,19.27
2023-02-24T08:51:02.467Z,18.17
2023-02-24T08:53:31.548Z,19.08
2023-02-24T08:56:00.470Z,20.05
2023-02-24T08:58:27.122Z,20.00
2023-02-24T09:00:59.505Z,17.85
2023-02-24T09:03:28.902Z,19.25
2023-02-24T09:05:58.146Z,18.70
2023-02-24T09:08:24.654Z,18.20
2023-02-24T09:10:52.068Z,16.90
2023-02-24T09:13:18.973Z,17.52
2023-02-24T09:15:45.482Z,17.23
2023-02-24T09:18:14.445Z,16.90
2023-02-24T09:20:56.402Z,16.77
2023-02-24T09:23:29.886Z,17.95
2023-02-24T09:25:57.181Z,16.60
2023-02-24T09:28:27.874Z,16.33
2023-02-24T09:30:57.457Z,18.63
2023-02-24T09:33:41.196Z,16.63
2023-02-24T09:38:59.525Z,15.18
2023-02-24T09:42:18.421Z,15.50
2023-02-24T09:44:52.674Z,16.08
2023-02-24T09:47:31.150Z,16.33
2023-02-24T09:50:04.520Z,15.07
2023-02-24T09:52:41.746Z,15.88
2023-02-24T09:55:25.086Z,14.45
2023-02-24T09:58:18.818Z,13.60
2023-02-24T10:01:21.117Z,13.98
2023-02-24T10:04:11.658Z,13.13
2023-02-24T10:06:49.324Z,12.32
2023-02-24T10:09:49.248Z,11.85
2023-02-24T10:12:18.231Z,12.13
2023-02-24T10:15:17.222Z,11.50
2023-02-24T10:17:55.382Z,12.15
2023-02-24T10:20:39.313Z,10.40
2023-02-24T10:23:29.688Z,11.07
2023-02-24T10:26:06.809Z,11.93
2023-02-24T10:28:46.316Z,11.63
2023-02-24T10:31:27.031Z,11.38
2023-02-24T10:34:01.729Z,11.10
2023-02-24T10:36:35.360Z,11.50
2023-02-24T10:39:17.309Z,10.52
2023-02-24T10:41:46.825Z,10.35
2023-02-24T10:44:20.820Z,10.45
2023-02-24T10:46:47.900Z,9.77
2023-02-24T10:49:16.860Z,9.82
2023-02-24T10:51:51.234Z,9.55
2023-02-24T10:54:34.620Z,10.38
2023-02-24T10:57:15.456Z,9.45
2023-02-24T11:00:16.105Z,9.35
2023-02-24T11:02:57.627Z,9.05
2023-02-24T11:05:27.326Z,9.85
2023-02-24T11:08:11.080Z,9.82
2023-02-24T11:10:58.723Z,9.55
2023-02-24T11:13:45.680Z,9.02
2023-02-24T11:16:31.013Z,9.90
2023-02-24T11:18:57.969Z,10.32
2023-02-24T11:21:26.533Z,9.65
2023-02-24T11:23:58.485Z,8.57
2023-02-24T11:26:43.647Z,9.07
2023-02-24T11:29:31.368Z,11.15
2023-02-24T11:32:22.187Z,9.00
2023-02-24T11:35:12.622Z,9.50
2023-02-24T11:37:53.871Z,10.38
2023-02-24T11:40:25.647Z,10.68
2023-02-24T11:43:04.200Z,9.63
2023-02-24T11:45:51.672Z,10.38
2023-02-24T11:48:21.086Z,10.82
2023-02-24T11:50:53.833Z,10.38
2023-02-24T11:53:29.195Z,9.85
2023-02-24T11:56:26.201Z,10.88
2023-02-24T11:59:18.952Z,10.75
2023-02-24T12:01:48.369Z,11.13
2023-02-24T12:04:37.305Z,11.35
2023-02-24T12:07:25.267Z,12.13
2023-02-24T12:10:16.678Z,11.13
2023-02-24T12:12:46.649Z,10.63
2023-02-24T12:15:25.268Z,13.00
2023-02-24T12:18:18.055Z,11.90
2023-02-24T12:20:52.692Z,11.30
2023-02-24T12:23:39.541Z,11.27
2023-02-24T12:26:18.235Z,10.35
2023-02-24T12:28:58.886Z,11.35
2023-02-24T12:31:54.532Z,10.05
2023-02-24T12:34:30.122Z,10.32
2023-02-24T12:37:16.716Z,9.32
2023-02-24T12:40:12.741Z,8.57
2023-02-24T12:43:17.150Z,9.48
2023-02-24T12:45:52.526Z,7.47
2023-02-24T12:48:50.430Z,8.98
2023-02-24T12:51:21.408Z,7.95
2023-02-24T12:54:04.949Z,7.63
2023-02-24T12:56:45.613Z,9.02
2023-02-24T12:59:19.224Z,7.78
2023-02-24T13:01:55.150Z,7.93
2023-02-24T13:04:40.333Z,8.48
2023-02-24T13:07:19.353Z,9.48
2023-02-24T13:10:09.537Z,9.88
2023-02-24T13:12:57.707Z,9.27
2023-02-24T13:15:27.851Z,9.18
2023-02-24T13:17:57.955Z,9.55
2023-02-24T13:20:34.221Z,8.60
2023-02-24T13:23:03.478Z,9.07
2023-02-24T13:25:38.429Z,9.23
2023-02-24T13:28:21.372Z,8.95
2023-02-24T13:30:58.289Z,8.75
2023-02-24T13:33:30.346Z,8.57
2023-02-24T13:36:13.475Z,10.15
2023-02-24T13:38:41.977Z,10.57
2023-02-24T13:41:17.831Z,8.68
2023-02-24T13:43:53.518Z,8.60
2023-02-24T13:46:20.095Z,8.63
2023-02-24T13:48:59.718Z,9.10
2023-02-24T13:51:52.478Z,8.63
2023-02-24T13:54:21.861Z,9.67
2023-02-24T13:56:57.350Z,8.82
2023-02-24T13:59:35.689Z,9.73
2023-02-24T14:02:19.630Z,9.02
2023-02-24T14:04:52.047Z,8.65
2023-02-24T14:07:25.778Z,9.55
2023-02-24T14:09:57.237Z,8.80
2023-02-24T14:12:26.774Z,10.73
2023-02-24T14:14:54.098Z,9.93
2023-02-24T14:17:29.470Z,9.13
2023-02-24T14:20:07.358Z,10.40
2023-02-24T14:22:34.754Z,9.77
2023-02-24T14:25:03.406Z,9.27
2023-02-24T14:27:30.713Z,9.85
2023-02-24T14:29:57.611Z,9.23
2023-02-24T14:32:26.734Z,10.80
2023-02-24T14:34:54.972Z,10.07
2023-02-24T14:37:25.999Z,9.95
2023-02-24T14:39:59.539Z,9.38
2023-02-24T14:42:28.003Z,10.45
2023-02-24T14:44:57.728Z,10.43
2023-02-24T14:47:27.953Z,10.73
2023-02-24T14:50:02.493Z,10.75
2023-02-24T14:52:44.985Z,10.63
2023-02-24T14:55:20.948Z,10.18
2023-02-24T14:58:01.885Z,10.18
2023-02-24T15:00:37.018Z,12.13
2023-02-24T15:03:09.363Z,10.00
2023-02-24T15:05:41.471Z,10.43
2023-02-24T15:08:29.413Z,9.68
2023-02-24T15:10:56.322Z,10.43
2023-02-24T15:13:44.827Z,10.50
2023-02-24T15:16:18.061Z,10.18
2023-02-24T15:18:49.371Z,10.60
2023-02-24T15:21:28.619Z,9.82
2023-02-24T15:24:03.492Z,9.98
2023-02-24T15:26:33.850Z,11.43
2023-02-24T15:29:13.986Z,10.93
2023-02-24T15:31:47.216Z,11.18
2023-02-24T15:34:22.356Z,9.88
2023-02-24T15:36:51.271Z,10.80
2023-02-24T15:39:23.224Z,9.85
2023-02-24T15:41:52.415Z,9.70
2023-02-24T15:44:52.936Z,10.63
2023-02-24T15:47:32.625Z,9.75
2023-02-24T15:49:59.406Z,10.13
2023-02-24T15:52:28.685Z,10.63
2023-02-24T15:54:57.961Z,9.40
2023-02-24T15:57:25.680Z,10.20
2023-02-24T15:59:52.593Z,10.13
2023-02-24T16:02:21.197Z,9.90
2023-02-24T16:04:49.025Z,10.70
2023-02-24T16:07:20.218Z,9.55
2023-02-24T16:09:48.929Z,9.30
2023-02-24T16:12:21.837Z,9.68
2023-02-24T16:14:50.308Z,9.60
2023-02-24T16:17:32.033Z,8.75
2023-02-24T16:19:59.189Z,9.50
2023-02-24T16:22:26.340Z,9.13
2023-02-24T16:24:52.889Z,9.30
2023-02-24T16:27:22.063Z,9.18
2023-02-24T16:29:49.649Z,8.85
2023-02-24T16:32:16.415Z,9.75
2023-02-24T16:34:43.085Z,8.48
2023-02-24T16:37:21.845Z,9.63
2023-02-24T16:39:49.474Z,8.82
2023-02-24T16:42:17.650Z,8.90
2023-02-24T16:44:44.633Z,10.10
2023-02-24T16:47:17.113Z,8.80
2023-02-24T16:49:43.669Z,9.05
2023-02-24T16:52:12.908Z,9.45
2023-02-24T16:54:39.438Z,8.65
2023-02-24T16:57:06.174Z,9.40
2023-02-24T16:59:32.630Z,10.15
2023-02-24T17:01:59.635Z,9.43
2023-02-24T17:04:26.200Z,9.60
2023-02-24T17:06:52.766Z,9.07
2023-02-24T17:09:19.287Z,9.18
2023-02-24T17:11:45.928Z,9.07
2023-02-24T17:14:20.276Z,7.97
2023-02-24T17:16:47.198Z,8.90
2023-02-24T17:19:14.141Z,9.18
2023-02-24T17:21:44.286Z,9.88
2023-02-24T17:24:19.159Z,9.68
2023-02-24T17:26:46.574Z,11.45
2023-02-24T17:29:14.616Z,10.15
2023-02-24T17:31:42.298Z,9.93
2023-02-24T17:34:09.430Z,8.63
2023-02-24T17:36:36.028Z,8.20
2023-02-24T17:39:02.585Z,7.40
2023-02-24T17:41:29.481Z,7.53
2023-02-24T17:43:56.016Z,9.38
2023-02-24T17:46:23.059Z,8.15
2023-02-24T17:48:49.842Z,9.15
2023-02-24T17:51:18.209Z,8.48
2023-02-24T17:53:45.011Z,6.53
2023-02-24T17:56:12.175Z,6.97
2023-02-24T17:58:39.192Z,7.45
2023-02-24T18:01:06.268Z,7.30
2023-02-24T18:03:34.595Z,7.75
2023-02-24T18:06:04.198Z,7.68
2023-02-24T18:08:33.465Z,6.47
2023-02-24T18:11:00.870Z,6.70
2023-02-24T18:13:29.201Z,7.50
2023-02-24T18:15:56.311Z,6.82
2023-02-24T18:18:23.806Z,6.68
2023-02-24T18:20:50.353Z,6.43
2023-02-24T18:23:17.187Z,6.35
2023-02-24T18:25:43.734Z,6.45
2023-02-24T18:28:10.254Z,6.97
2023-02-24T18:30:39.530Z,7.05
2023-02-24T18:33:06.343Z,6.32
2023-02-24T18:35:33.013Z,6.38
2023-02-24T18:37:59.547Z,6.35
2023-02-24T18:40:27.075Z,5.70
2023-02-24T18:42:53.816Z,6.32
2023-02-24T18:45:21.996Z,7.47
2023-02-24T18:47:51.487Z,6.82
2023-02-24T18:50:18.221Z,6.40
2023-02-24T18:52:44.791Z,5.57
2023-02-24T18:55:11.260Z,5.28
2023-02-24T18:57:37.799Z,6.10
2023-02-24T19:00:05.787Z,5.05
2023-02-24T19:02:32.371Z,5.97
2023-02-24T19:04:58.935Z,9.10
2023-02-24T19:07:25.469Z,5.43
2023-02-24T19:09:52.128Z,5.47
2023-02-24T19:12:20.404Z,7.97
2023-02-24T19:14:51.320Z,6.90
2023-02-24T19:17:18.113Z,6.82
2023-02-24T19:19:46.621Z,7.45
2023-02-24T19:22:13.279Z,5.28
2023-02-24T19:24:41.057Z,5.97
2023-02-24T19:27:08.663Z,5.35
2023-02-24T19:29:35.493Z,6.88
2023-02-24T19:32:02.167Z,5.05
2023-02-24T19:34:28.791Z,5.75
2023-02-24T19:36:55.289Z,6.68
2023-02-24T19:39:21.989Z,5.93
2023-02-24T19:41:49.783Z,5.70
2023-02-24T19:44:16.936Z,6.15
2023-02-24T19:46:43.495Z,6.15
2023-02-24T19:49:10.010Z,6.35
2023-02-24T19:51:36.627Z,5.32
2023-02-24T19:54:05.889Z,6.00
2023-02-24T19:56:36.871Z,5.30
2023-02-24T19:59:06.112Z,6.22
2023-02-24T20:01:33.219Z,5.75
2023-02-24T20:04:02.051Z,4.75
2023-02-24T20:06:37.249Z,5.40
2023-02-24T20:09:10.205Z,6.65
2023-02-24T20:11:38.783Z,5.22
2023-02-24T20:14:06.622Z,6.13
2023-02-24T20:16:34.801Z,5.57
2023-02-24T20:19:01.853Z,6.65
2023-02-24T20:21:28.804Z,5.65
2023-02-24T20:23:55.355Z,6.25
2023-02-24T20:26:22.202Z,7.05
2023-02-24T20:28:49.019Z,6.22
2023-02-24T20:31:19.196Z,7.53
2023-02-24T20:33:47.744Z,6.30
2023-02-24T20:36:26.026Z,6.55
2023-02-24T20:38:53.511Z,5.53
2023-02-24T20:41:21.570Z,6.30
2023-02-24T20:43:48.565Z,5.13
2023-02-24T20:46:18.980Z,6.05
2023-02-24T20:48:45.682Z,6.88
2023-02-24T20:51:12.637Z,6.30
2023-02-24T20:53:54.725Z,5.43
2023-02-24T20:56:23.790Z,5.50
2023-02-24T20:58:53.054Z,6.60
2023-02-24T21:01:21.145Z,6.45
2023-02-24T21:03:48.277Z,5.78
2023-02-24T21:06:17.132Z,6.35
2023-02-24T21:08:44.447Z,7.97
2023-02-24T21:11:12.095Z,6.85
2023-02-24T21:13:43.864Z,6.90
2023-02-24T21:16:11.847Z,7.25
2023-02-24T21:18:40.391Z,5.97
2023-02-24T21:21:08.484Z,7.75
2023-02-24T21:23:35.879Z,6.60
2023-02-24T21:26:02.711Z,7.47
2023-02-24T21:28:29.403Z,6.90
2023-02-24T21:30:56.534Z,6.47
2023-02-24T21:33:23.170Z,7.38
2023-02-24T21:36:00.753Z,6.60
2023-02-24T21:38:27.266Z,7.13
2023-02-24T21:40:54.312Z,7.90
2023-02-24T21:43:21.745Z,7.05
2023-02-24T21:45:48.308Z,7.28
2023-02-24T21:48:14.905Z,8.18
2023-02-24T21:50:41.433Z,7.80
2023-02-24T21:53:08.087Z,6.63
2023-02-24T21:55:37.056Z,6.78
2023-02-24T21:58:03.556Z,8.35
2023-02-24T22:00:30.314Z,7.47
2023-02-24T22:02:57.026Z,7.13
2023-02-24T22:05:25.813Z,7.18
2023-02-24T22:07:53.057Z,7.32
2023-02-24T22:10:22.377Z,6.78
2023-02-24T22:12:50.741Z,6.18
2023-02-24T22:15:17.349Z,6.82
2023-02-24T22:17:43.853Z,6.32
2023-02-24T22:20:13.346Z,6.20
2023-02-24T22:22:41.933Z,6.43
2023-02-24T22:25:12.511Z,5.65
2023-02-24T22:27:39.721Z,6.00
2023-02-24T22:30:08.015Z,5.40
2023-02-24T22:32:35.612Z,6.45
2023-02-24T22:35:02.263Z,5.72
2023-02-24T22:37:29.849Z,5.68
2023-02-24T22:39:56.454Z,5.95
2023-02-24T22:42:23.033Z,5.32
2023-02-24T22:44:49.506Z,6.00
2023-02-24T22:47:16.946Z,5.80
2023-02-24T22:49:43.645Z,6.35
2023-02-24T22:52:12.047Z,6.10
2023-02-24T22:54:38.578Z,6.22
2023-02-24T22:57:05.201Z,7.40
2023-02-24T22:59:31.708Z,7.18
2023-02-24T23:01:59.766Z,8.25
2023-02-24T23:04:29.269Z,7.93
2023-02-24T23:06:57.201Z,8.13
2023-02-24T23:09:24.139Z,7.13
2023-02-24T23:11:50.902Z,7.82
2023-02-24T23:14:17.799Z,7.90
2023-02-24T23:16:46.456Z,6.90
2023-02-24T23:19:18.568Z,8.27
2023-02-24T23:21:51.174Z,7.18
2023-02-24T23:24:18.606Z,7.33
2023-02-24T23:26:47.867Z,7.15
2023-02-24T23:29:17.526Z,7.25
2023-02-24T23:31:45.391Z,7.35
2023-02-24T23:34:12.531Z,6.60
2023-02-24T23:36:45.253Z,6.63
2023-02-24T23:39:14.392Z,6.13
2023-02-24T23:41:44.307Z,6.32
2023-02-24T23:44:12.524Z,6.70
2023-02-24T23:46:39.135Z,5.45
2023-02-24T23:49:05.734Z,5.30
2023-02-24T23:51:46.899Z,6.32
2023-02-24T23:54:13.927Z,5.13
2023-02-24T23:56:41.129Z,5.70
2023-02-24T23:59:07.646Z,5.43
